Airfield :







YOU CAN JOIN US ON...

 
LOGIN :

Register | Disclaimer

   EN    FR    IT 

 









Legend :    VFR   Marginal VFR   IFR   Intensive IFR   Very Intensive IFR
Visi :
Ceiling :
>= 8 km
>= 3000ft
5 to 8 km
1000 to 3000 ft
1500m to 5 km
500 to 1000 ft
800 to 1500m
200 to 500 ft
< 800m
< 200 ft
Symbols :   Thunderstorms  Fog  Heavy snow  Heavy precipitations  Wind > 20 kt






- Airport Elevation : 76 ft
- IATA code : PWM


KPWM - Portland International Jetport

CURRENT METAR :
  • 280751Z AUTO 05005KT 10SM SCT006 BKN045 OVC055 06/05 A2992 RMK AO2 SLP131 P0001 T00560050

EXPIRED METARs :
  • 280705Z AUTO 31004KT 8SM SCT009 BKN030 OVC036 06/06 A2993 RMK AO2 T00610061
  • 280551Z AUTO 33003KT 10SM OVC009 06/06 A2992 RMK AO2 SLP132 T00610061 10078 20050 56003
  • 280549Z AUTO 34004KT 10SM OVC009 06/06 A2992 RMK AO2
  • 280533Z AUTO VRB03KT 10SM OVC010 06/06 A2991 RMK AO2 T00610061

TAF KPWM
Valid from the 28 at 06:00 until the 29 at 06:00 UTC


280520Z 2806/2906 29003KT P6SM BKN008
FM280800 31003KT P6SM BKN050
FM281700 29006KT P6SM SCT050
KZBW FIR / North America



MET'MAP, your aeronautical weather chart ! - Copyright ORBIFLY December 2007 - Disclaimer

ORBIFLY MET'MAP TEAM :

Programming & Development : Alexandra Zaïnal
Concept & original design : Baudouin d'Aumeries
Assistance for programming : Marc-Olivier Méhu
Technical & hardware support : Manuel Goepfert

Contact : metmap@orbifly.com




SOURCES & CREDITS :

   NOAA